sensor_id;sensor_type;location;lat;lon;timestamp;pressure;altitude;pressure_sealevel;temperature;humidity
10462;BME280;5278;42.656;23.374;2022-09-23T00:02:07;94852.66;;;11.97;73.54
10462;BME280;5278;42.656;23.374;2022-09-23T00:04:35;94840.28;;;11.99;72.93
10462;BME280;5278;42.656;23.374;2022-09-23T00:07:01;94791.16;;;11.59;73.64
10462;BME280;5278;42.656;23.374;2022-09-23T00:09:30;94842.88;;;11.99;73.08
10462;BME280;5278;42.656;23.374;2022-09-23T00:11:57;94840.63;;;11.96;73.14
10462;BME280;5278;42.656;23.374;2022-09-23T00:14:24;94849.94;;;11.91;73.67
10462;BME280;5278;42.656;23.374;2022-09-23T00:16:51;94842.88;;;11.85;73.39
10462;BME280;5278;42.656;23.374;2022-09-23T00:19:17;94841.78;;;11.79;73.67
10462;BME280;5278;42.656;23.374;2022-09-23T00:21:44;94844.53;;;11.78;74.16
10462;BME280;5278;42.656;23.374;2022-09-23T00:24:11;94849.22;;;11.82;74.06
10462;BME280;5278;42.656;23.374;2022-09-23T00:26:41;94845.13;;;11.65;74.27
10462;BME280;5278;42.656;23.374;2022-09-23T00:29:09;94850.09;;;11.52;74.99
10462;BME280;5278;42.656;23.374;2022-09-23T00:31:35;94852.41;;;11.47;75.27
10462;BME280;5278;42.656;23.374;2022-09-23T00:34:02;94845.94;;;11.43;75.24
10462;BME280;5278;42.656;23.374;2022-09-23T00:36:29;94853.16;;;11.33;75.13
10462;BME280;5278;42.656;23.374;2022-09-23T00:38:56;94838.31;;;11.18;75.39
10462;BME280;5278;42.656;23.374;2022-09-23T00:41:25;94847.44;;;11.14;75.58
10462;BME280;5278;42.656;23.374;2022-09-23T00:43:55;94840.03;;;11.03;75.52
10462;BME280;5278;42.656;23.374;2022-09-23T00:46:24;94837.59;;;11.02;75.43
10462;BME280;5278;42.656;23.374;2022-09-23T00:48:56;94841.91;;;10.87;75.90
10462;BME280;5278;42.656;23.374;2022-09-23T00:51:29;94846.47;;;10.85;76.02
10462;BME280;5278;42.656;23.374;2022-09-23T00:53:57;94845.34;;;10.79;75.89
10462;BME280;5278;42.656;23.374;2022-09-23T00:56:24;94850.88;;;10.76;75.74
10462;BME280;5278;42.656;23.374;2022-09-23T00:58:52;94852.03;;;10.73;75.46
10462;BME280;5278;42.656;23.374;2022-09-23T01:01:19;94848.69;;;10.65;74.81
10462;BME280;5278;42.656;23.374;2022-09-23T01:03:47;94854.69;;;10.65;74.31
10462;BME280;5278;42.656;23.374;2022-09-23T01:06:14;94845.13;;;10.58;74.32
10462;BME280;5278;42.656;23.374;2022-09-23T01:08:43;94855.56;;;10.50;74.95
10462;BME280;5278;42.656;23.374;2022-09-23T01:11:29;94849.28;;;10.36;75.33
10462;BME280;5278;42.656;23.374;2022-09-23T01:14:13;94836.16;;;10.29;75.23
10462;BME280;5278;42.656;23.374;2022-09-23T01:16:47;94848.81;;;10.24;75.78
10462;BME280;5278;42.656;23.374;2022-09-23T01:19:33;94845.91;;;10.19;75.52
10462;BME280;5278;42.656;23.374;2022-09-23T01:22:07;94848.81;;;10.16;75.48
10462;BME280;5278;42.656;23.374;2022-09-23T01:24:51;94848.31;;;10.13;75.34
10462;BME280;5278;42.656;23.374;2022-09-23T01:27:39;94846.22;;;10.16;75.01
10462;BME280;5278;42.656;23.374;2022-09-23T01:30:14;94845.41;;;10.08;75.73
10462;BME280;5278;42.656;23.374;2022-09-23T01:32:53;94859.69;;;10.04;75.57
10462;BME280;5278;42.656;23.374;2022-09-23T01:35:25;94854.03;;;10.00;75.79
10462;BME280;5278;42.656;23.374;2022-09-23T01:38:02;94868.31;;;9.96;75.75
10462;BME280;5278;42.656;23.374;2022-09-23T01:40:38;94849.19;;;9.89;76.21
10462;BME280;5278;42.656;23.374;2022-09-23T01:43:12;94860.69;;;9.94;76.23
10462;BME280;5278;42.656;23.374;2022-09-23T01:45:44;94867.50;;;9.96;76.25
10462;BME280;5278;42.656;23.374;2022-09-23T01:48:17;94859.56;;;9.89;76.42
10462;BME280;5278;42.656;23.374;2022-09-23T01:50:51;94863.78;;;9.90;76.75
10462;BME280;5278;42.656;23.374;2022-09-23T01:53:26;94874.78;;;9.92;76.96
10462;BME280;5278;42.656;23.374;2022-09-23T01:55:59;94863.13;;;9.96;77.23
10462;BME280;5278;42.656;23.374;2022-09-23T01:58:31;94868.63;;;9.93;77.64
10462;BME280;5278;42.656;23.374;2022-09-23T02:01:03;94858.41;;;10.00;76.76
10462;BME280;5278;42.656;23.374;2022-09-23T02:03:35;94858.06;;;10.03;77.13
10462;BME280;5278;42.656;23.374;2022-09-23T02:06:09;94853.69;;;10.03;76.57
10462;BME280;5278;42.656;23.374;2022-09-23T02:08:42;94862.78;;;9.99;76.88
10462;BME280;5278;42.656;23.374;2022-09-23T02:11:11;94863.28;;;9.94;76.88
10462;BME280;5278;42.656;23.374;2022-09-23T02:13:44;94811.91;;;9.41;76.91
10462;BME280;5278;42.656;23.374;2022-09-23T02:16:18;94864.75;;;9.73;77.73
10462;BME280;5278;42.656;23.374;2022-09-23T02:18:52;94859.25;;;9.68;77.54
10462;BME280;5278;42.656;23.374;2022-09-23T02:21:24;94851.66;;;9.66;78.38
10462;BME280;5278;42.656;23.374;2022-09-23T02:23:57;94850.50;;;9.69;78.67
10462;BME280;5278;42.656;23.374;2022-09-23T02:26:30;94847.91;;;9.69;79.40
10462;BME280;5278;42.656;23.374;2022-09-23T02:29:06;94855.22;;;9.65;79.96
10462;BME280;5278;42.656;23.374;2022-09-23T02:31:39;94852.13;;;9.62;80.27
10462;BME280;5278;42.656;23.374;2022-09-23T02:34:18;94850.19;;;9.64;80.47
10462;BME280;5278;42.656;23.374;2022-09-23T02:36:53;94858.94;;;9.71;80.73
10462;BME280;5278;42.656;23.374;2022-09-23T02:39:22;94861.84;;;9.76;80.13
10462;BME280;5278;42.656;23.374;2022-09-23T02:41:58;94864.44;;;9.76;80.65
10462;BME280;5278;42.656;23.374;2022-09-23T02:44:27;94865.09;;;9.78;80.82
10462;BME280;5278;42.656;23.374;2022-09-23T02:46:56;94871.91;;;9.71;80.46
10462;BME280;5278;42.656;23.374;2022-09-23T02:49:27;94865.09;;;9.62;80.60
10462;BME280;5278;42.656;23.374;2022-09-23T02:51:55;94867.84;;;9.52;81.43
10462;BME280;5278;42.656;23.374;2022-09-23T02:54:24;94870.91;;;9.47;81.07
10462;BME280;5278;42.656;23.374;2022-09-23T02:56:53;94876.13;;;9.39;80.13
10462;BME280;5278;42.656;23.374;2022-09-23T02:59:22;94873.00;;;9.28;80.00
10462;BME280;5278;42.656;23.374;2022-09-23T03:01:58;94873.97;;;9.19;81.08
10462;BME280;5278;42.656;23.374;2022-09-23T03:04:35;94875.91;;;9.17;81.16
10462;BME280;5278;42.656;23.374;2022-09-23T03:07:13;94874.31;;;9.16;81.24
10462;BME280;5278;42.656;23.374;2022-09-23T03:09:49;94877.19;;;9.04;81.64
10462;BME280;5278;42.656;23.374;2022-09-23T03:12:24;94875.72;;;9.02;82.37
10462;BME280;5278;42.656;23.374;2022-09-23T03:15:07;94874.91;;;8.93;82.79
10462;BME280;5278;42.656;23.374;2022-09-23T03:17:42;94876.84;;;8.91;83.74
10462;BME280;5278;42.656;23.374;2022-09-23T03:20:20;94874.41;;;8.90;83.21
10462;BME280;5278;42.656;23.374;2022-09-23T03:22:54;94865.16;;;8.87;83.89
10462;BME280;5278;42.656;23.374;2022-09-23T03:25:27;94863.41;;;8.96;84.03
10462;BME280;5278;42.656;23.374;2022-09-23T03:27:59;94875.06;;;9.00;83.77
10462;BME280;5278;42.656;23.374;2022-09-23T03:30:27;94873.44;;;8.99;83.88
10462;BME280;5278;42.656;23.374;2022-09-23T03:32:57;94871.97;;;8.88;83.24
10462;BME280;5278;42.656;23.374;2022-09-23T03:35:28;94877.00;;;8.90;83.13
10462;BME280;5278;42.656;23.374;2022-09-23T03:38:01;94873.59;;;8.89;82.84
10462;BME280;5278;42.656;23.374;2022-09-23T03:40:33;94867.59;;;8.89;82.76
10462;BME280;5278;42.656;23.374;2022-09-23T03:43:06;94869.53;;;8.87;83.15
10462;BME280;5278;42.656;23.374;2022-09-23T03:45:33;94871.47;;;8.85;83.62
10462;BME280;5278;42.656;23.374;2022-09-23T03:48:01;94869.19;;;8.82;83.95
10462;BME280;5278;42.656;23.374;2022-09-23T03:50:29;94863.22;;;8.81;84.32
10462;BME280;5278;42.656;23.374;2022-09-23T03:52:56;94876.50;;;8.86;84.38
10462;BME280;5278;42.656;23.374;2022-09-23T03:55:22;94877.63;;;8.84;84.82
10462;BME280;5278;42.656;23.374;2022-09-23T03:57:49;94885.38;;;8.84;85.13
10462;BME280;5278;42.656;23.374;2022-09-23T04:00:16;94885.06;;;8.87;84.70
10462;BME280;5278;42.656;23.374;2022-09-23T04:02:43;94878.59;;;8.83;85.06
10462;BME280;5278;42.656;23.374;2022-09-23T04:05:11;94880.50;;;8.73;85.23
10462;BME280;5278;42.656;23.374;2022-09-23T04:07:39;94892.47;;;8.74;84.91
10462;BME280;5278;42.656;23.374;2022-09-23T04:10:07;94901.22;;;8.73;85.36
10462;BME280;5278;42.656;23.374;2022-09-23T04:12:34;94894.25;;;8.73;85.42
10462;BME280;5278;42.656;23.374;2022-09-23T04:15:02;94895.03;;;8.66;85.96
10462;BME280;5278;42.656;23.374;2022-09-23T04:17:28;94886.75;;;8.54;85.62
10462;BME280;5278;42.656;23.374;2022-09-23T04:19:55;94896.78;;;8.57;86.28
10462;BME280;5278;42.656;23.374;2022-09-23T04:22:22;94893.41;;;8.56;86.24
10462;BME280;5278;42.656;23.374;2022-09-23T04:24:50;94899.22;;;8.58;86.58
10462;BME280;5278;42.656;23.374;2022-09-23T04:27:17;94902.13;;;8.55;86.45
10462;BME280;5278;42.656;23.374;2022-09-23T04:29:43;94904.84;;;8.54;86.51
10462;BME280;5278;42.656;23.374;2022-09-23T04:32:10;94907.91;;;8.49;86.13
10462;BME280;5278;42.656;23.374;2022-09-23T04:34:38;94916.97;;;8.45;85.49
10462;BME280;5278;42.656;23.374;2022-09-23T04:37:05;94915.81;;;8.48;85.85
10462;BME280;5278;42.656;23.374;2022-09-23T04:39:32;94920.88;;;8.57;85.07
10462;BME280;5278;42.656;23.374;2022-09-23T04:42:00;94917.94;;;8.52;84.57
10462;BME280;5278;42.656;23.374;2022-09-23T04:44:28;94926.06;;;8.57;84.01
10462;BME280;5278;42.656;23.374;2022-09-23T04:46:55;94926.75;;;8.68;84.13
10462;BME280;5278;42.656;23.374;2022-09-23T04:49:21;94930.50;;;8.73;84.06
10462;BME280;5278;42.656;23.374;2022-09-23T04:51:48;94929.09;;;8.79;84.35
10462;BME280;5278;42.656;23.374;2022-09-23T04:54:15;94931.56;;;8.88;83.75
10462;BME280;5278;42.656;23.374;2022-09-23T04:56:42;94930.25;;;8.92;83.24
10462;BME280;5278;42.656;23.374;2022-09-23T04:59:11;94932.22;;;8.98;82.06
10462;BME280;5278;42.656;23.374;2022-09-23T05:01:38;94937.28;;;9.08;80.70
10462;BME280;5278;42.656;23.374;2022-09-23T05:04:08;94930.31;;;9.08;80.74
10462;BME280;5278;42.656;23.374;2022-09-23T05:06:39;94939.91;;;9.16;80.18
10462;BME280;5278;42.656;23.374;2022-09-23T05:09:13;94930.38;;;9.33;79.98
10462;BME280;5278;42.656;23.374;2022-09-23T05:11:40;94937.38;;;9.48;79.75
10462;BME280;5278;42.656;23.374;2022-09-23T05:14:08;94934.81;;;9.65;79.48
10462;BME280;5278;42.656;23.374;2022-09-23T05:16:36;94934.31;;;9.77;79.18
10462;BME280;5278;42.656;23.374;2022-09-23T05:19:03;94935.44;;;10.07;79.62
10462;BME280;5278;42.656;23.374;2022-09-23T05:21:30;94930.38;;;10.46;79.53
10462;BME280;5278;42.656;23.374;2022-09-23T05:23:57;94926.50;;;10.97;77.90
10462;BME280;5278;42.656;23.374;2022-09-23T05:26:26;94931.50;;;11.38;76.20
10462;BME280;5278;42.656;23.374;2022-09-23T05:28:54;94926.25;;;11.91;74.77
10462;BME280;5278;42.656;23.374;2022-09-23T05:31:22;94934.09;;;12.29;72.84
10462;BME280;5278;42.656;23.374;2022-09-23T05:33:54;94941.66;;;12.53;71.33
10462;BME280;5278;42.656;23.374;2022-09-23T05:36:22;94925.59;;;12.79;70.44
10462;BME280;5278;42.656;23.374;2022-09-23T05:38:50;94930.63;;;13.24;69.36
10462;BME280;5278;42.656;23.374;2022-09-23T05:41:18;94932.09;;;13.91;66.94
10462;BME280;5278;42.656;23.374;2022-09-23T05:43:47;94923.41;;;14.54;63.73
10462;BME280;5278;42.656;23.374;2022-09-23T05:46:16;94923.75;;;15.13;60.28
10462;BME280;5278;42.656;23.374;2022-09-23T05:48:44;94918.59;;;15.39;58.55
10462;BME280;5278;42.656;23.374;2022-09-23T05:51:14;94913.88;;;15.63;57.08
10462;BME280;5278;42.656;23.374;2022-09-23T05:53:42;94909.06;;;15.99;55.90
10462;BME280;5278;42.656;23.374;2022-09-23T05:56:11;94910.91;;;16.25;53.69
10462;BME280;5278;42.656;23.374;2022-09-23T05:58:38;94910.47;;;16.54;52.87
10462;BME280;5278;42.656;23.374;2022-09-23T06:01:09;94904.41;;;16.80;51.50
10462;BME280;5278;42.656;23.374;2022-09-23T06:03:37;94911.41;;;16.99;50.66
10462;BME280;5278;42.656;23.374;2022-09-23T06:06:05;94910.63;;;17.50;48.45
10462;BME280;5278;42.656;23.374;2022-09-23T06:08:33;94908.25;;;17.80;47.79
10462;BME280;5278;42.656;23.374;2022-09-23T06:11:03;94906.53;;;18.23;46.41
10462;BME280;5278;42.656;23.374;2022-09-23T06:13:32;94901.44;;;18.53;45.49
10462;BME280;5278;42.656;23.374;2022-09-23T06:16:03;94893.03;;;18.87;44.53
10462;BME280;5278;42.656;23.374;2022-09-23T06:18:30;94893.44;;;19.39;43.17
10462;BME280;5278;42.656;23.374;2022-09-23T06:21:00;94887.59;;;19.55;41.88
10462;BME280;5278;42.656;23.374;2022-09-23T06:23:27;94895.59;;;19.30;42.51
10462;BME280;5278;42.656;23.374;2022-09-23T06:26:00;94898.59;;;19.52;41.92
10462;BME280;5278;42.656;23.374;2022-09-23T06:28:28;94895.44;;;19.73;41.37
10462;BME280;5278;42.656;23.374;2022-09-23T06:30:57;94885.97;;;19.84;40.91
10462;BME280;5278;42.656;23.374;2022-09-23T06:33:24;94893.25;;;20.00;40.86
10462;BME280;5278;42.656;23.374;2022-09-23T06:35:54;94888.19;;;20.40;39.64
10462;BME280;5278;42.656;23.374;2022-09-23T06:38:21;94885.91;;;20.55;39.42
10462;BME280;5278;42.656;23.374;2022-09-23T06:40:50;94890.94;;;20.92;38.88
10462;BME280;5278;42.656;23.374;2022-09-23T06:43:19;94890.97;;;21.43;38.01
10462;BME280;5278;42.656;23.374;2022-09-23T06:45:50;94891.75;;;21.56;37.31
10462;BME280;5278;42.656;23.374;2022-09-23T06:48:17;94902.56;;;22.11;36.72
10462;BME280;5278;42.656;23.374;2022-09-23T06:50:44;94893.50;;;22.40;35.59
10462;BME280;5278;42.656;23.374;2022-09-23T06:53:11;94897.59;;;22.48;35.35
10462;BME280;5278;42.656;23.374;2022-09-23T06:55:38;94903.22;;;22.51;35.45
10462;BME280;5278;42.656;23.374;2022-09-23T06:58:06;94895.19;;;22.80;34.19
10462;BME280;5278;42.656;23.374;2022-09-23T07:00:35;94896.00;;;22.80;34.37
10462;BME280;5278;42.656;23.374;2022-09-23T07:03:05;94899.63;;;22.41;34.80
10462;BME280;5278;42.656;23.374;2022-09-23T07:05:32;94894.16;;;22.81;34.42
10462;BME280;5278;42.656;23.374;2022-09-23T07:07:59;94899.44;;;23.84;33.23
10462;BME280;5278;42.656;23.374;2022-09-23T07:10:26;94908.44;;;24.64;31.59
10462;BME280;5278;42.656;23.374;2022-09-23T07:12:53;94904.66;;;24.92;31.57
10462;BME280;5278;42.656;23.374;2022-09-23T07:15:20;94906.34;;;25.08;30.99
10462;BME280;5278;42.656;23.374;2022-09-23T07:17:48;94906.31;;;25.50;30.56
10462;BME280;5278;42.656;23.374;2022-09-23T07:20:15;94898.53;;;25.43;30.48
10462;BME280;5278;42.656;23.374;2022-09-23T07:22:42;94905.19;;;24.89;30.67
10462;BME280;5278;42.656;23.374;2022-09-23T07:25:09;94911.41;;;24.72;31.41
10462;BME280;5278;42.656;23.374;2022-09-23T07:27:36;94911.13;;;24.69;30.94
10462;BME280;5278;42.656;23.374;2022-09-23T07:30:04;94914.78;;;24.63;31.05
10462;BME280;5278;42.656;23.374;2022-09-23T07:32:31;94918.25;;;24.95;30.91
10462;BME280;5278;42.656;23.374;2022-09-23T07:34:59;94932.56;;;24.57;31.59
10462;BME280;5278;42.656;23.374;2022-09-23T07:37:26;94924.59;;;24.89;31.03
10462;BME280;5278;42.656;23.374;2022-09-23T07:39:52;94927.22;;;25.83;30.00
10462;BME280;5278;42.656;23.374;2022-09-23T07:42:20;94916.41;;;26.66;28.15
10462;BME280;5278;42.656;23.374;2022-09-23T07:44:47;94917.22;;;26.51;28.46
10462;BME280;5278;42.656;23.374;2022-09-23T07:47:14;94927.09;;;26.55;28.69
10462;BME280;5278;42.656;23.374;2022-09-23T07:49:41;94927.63;;;27.08;27.95
10462;BME280;5278;42.656;23.374;2022-09-23T07:52:09;94925.13;;;27.52;27.74
10462;BME280;5278;42.656;23.374;2022-09-23T07:54:36;94919.94;;;28.30;26.56
10462;BME280;5278;42.656;23.374;2022-09-23T07:57:03;94918.31;;;28.73;25.97
10462;BME280;5278;42.656;23.374;2022-09-23T07:59:30;94906.38;;;29.18;25.70
10462;BME280;5278;42.656;23.374;2022-09-23T08:01:56;94912.69;;;29.56;24.67
10462;BME280;5278;42.656;23.374;2022-09-23T08:04:26;94913.34;;;29.90;24.14
10462;BME280;5278;42.656;23.374;2022-09-23T08:06:55;94925.78;;;29.81;24.50
10462;BME280;5278;42.656;23.374;2022-09-23T08:09:27;94933.19;;;29.89;24.30
10462;BME280;5278;42.656;23.374;2022-09-23T08:11:54;94922.97;;;30.53;23.48
10462;BME280;5278;42.656;23.374;2022-09-23T08:14:21;94923.47;;;30.87;23.33
10462;BME280;5278;42.656;23.374;2022-09-23T08:16:48;94918.81;;;31.25;22.70
10462;BME280;5278;42.656;23.374;2022-09-23T08:19:17;94906.41;;;31.56;22.14
10462;BME280;5278;42.656;23.374;2022-09-23T08:21:45;94912.75;;;32.01;21.76
10462;BME280;5278;42.656;23.374;2022-09-23T08:24:14;94898.09;;;32.43;21.45
10462;BME280;5278;42.656;23.374;2022-09-23T08:26:43;94892.47;;;33.20;20.46
10462;BME280;5278;42.656;23.374;2022-09-23T08:29:11;94904.75;;;33.75;19.95
10462;BME280;5278;42.656;23.374;2022-09-23T08:31:38;94902.16;;;34.43;19.54
10462;BME280;5278;42.656;23.374;2022-09-23T08:34:05;94903.91;;;34.65;19.64
10462;BME280;5278;42.656;23.374;2022-09-23T08:36:32;94900.06;;;35.01;18.46
10462;BME280;5278;42.656;23.374;2022-09-23T08:38:59;94898.66;;;34.60;18.75
10462;BME280;5278;42.656;23.374;2022-09-23T08:41:34;94901.81;;;34.88;18.52
10462;BME280;5278;42.656;23.374;2022-09-23T08:44:10;94897.91;;;35.40;18.57
10462;BME280;5278;42.656;23.374;2022-09-23T08:46:43;94902.88;;;35.30;18.15
10462;BME280;5278;42.656;23.374;2022-09-23T08:49:18;94902.00;;;34.40;18.59
10462;BME280;5278;42.656;23.374;2022-09-23T08:51:48;94901.84;;;34.45;18.60
10462;BME280;5278;42.656;23.374;2022-09-23T08:54:16;94900.00;;;33.80;19.28
10462;BME280;5278;42.656;23.374;2022-09-23T08:56:47;94897.09;;;33.68;19.14
10462;BME280;5278;42.656;23.374;2022-09-23T08:59:19;94895.81;;;34.31;18.81
10462;BME280;5278;42.656;23.374;2022-09-23T09:01:52;94893.25;;;34.17;18.63
10462;BME280;5278;42.656;23.374;2022-09-23T09:04:23;94865.34;;;33.17;19.54
10462;BME280;5278;42.656;23.374;2022-09-23T09:06:56;94873.75;;;32.26;20.49
10462;BME280;5278;42.656;23.374;2022-09-23T09:09:27;94893.59;;;32.53;20.11
10462;BME280;5278;42.656;23.374;2022-09-23T09:11:58;94889.06;;;33.15;19.54
10462;BME280;5278;42.656;23.374;2022-09-23T09:14:35;94891.03;;;33.62;19.42
10462;BME280;5278;42.656;23.374;2022-09-23T09:17:11;94890.59;;;33.69;18.67
10462;BME280;5278;42.656;23.374;2022-09-23T09:19:53;94895.81;;;34.31;17.78
10462;BME280;5278;42.656;23.374;2022-09-23T09:25:19;94896.72;;;34.95;17.30
10462;BME280;5278;42.656;23.374;2022-09-23T09:27:48;94890.72;;;35.82;16.35
10462;BME280;5278;42.656;23.374;2022-09-23T09:30:17;94899.84;;;36.28;16.60
10462;BME280;5278;42.656;23.374;2022-09-23T09:32:47;94892.56;;;36.20;16.54
10462;BME280;5278;42.656;23.374;2022-09-23T09:35:19;94891.31;;;36.38;16.65
10462;BME280;5278;42.656;23.374;2022-09-23T09:37:50;94889.81;;;35.99;16.99
10462;BME280;5278;42.656;23.374;2022-09-23T09:40:17;94892.06;;;35.68;16.70
10462;BME280;5278;42.656;23.374;2022-09-23T09:42:47;94885.53;;;35.98;16.41
10462;BME280;5278;42.656;23.374;2022-09-23T09:45:22;94894.13;;;35.62;16.81
10462;BME280;5278;42.656;23.374;2022-09-23T09:48:00;94902.16;;;34.61;17.42
10462;BME280;5278;42.656;23.374;2022-09-23T09:50:41;94905.13;;;33.51;18.16
10462;BME280;5278;42.656;23.374;2022-09-23T09:53:20;94900.78;;;33.33;18.79
10462;BME280;5278;42.656;23.374;2022-09-23T09:55:57;94872.13;;;34.02;17.46
10462;BME280;5278;42.656;23.374;2022-09-23T09:58:27;94894.88;;;34.27;17.97
10462;BME280;5278;42.656;23.374;2022-09-23T10:00:58;94887.31;;;35.10;17.62
10462;BME280;5278;42.656;23.374;2022-09-23T10:03:32;94884.28;;;35.66;16.35
10462;BME280;5278;42.656;23.374;2022-09-23T10:06:13;94881.31;;;36.09;16.61
10462;BME280;5278;42.656;23.374;2022-09-23T10:08:47;94884.88;;;35.72;16.69
10462;BME280;5278;42.656;23.374;2022-09-23T10:11:15;94883.00;;;35.93;16.24
10462;BME280;5278;42.656;23.374;2022-09-23T10:14:00;94874.81;;;35.81;15.93
10462;BME280;5278;42.656;23.374;2022-09-23T10:16:30;94885.84;;;36.26;15.49
10462;BME280;5278;42.656;23.374;2022-09-23T10:18:59;94879.91;;;35.45;15.54
10462;BME280;5278;42.656;23.374;2022-09-23T10:21:31;94879.75;;;34.86;16.93
10462;BME280;5278;42.656;23.374;2022-09-23T10:24:01;94857.38;;;34.77;16.57
10462;BME280;5278;42.656;23.374;2022-09-23T10:26:30;94873.41;;;34.56;16.77
10462;BME280;5278;42.656;23.374;2022-09-23T10:29:00;94863.84;;;33.42;17.59
10462;BME280;5278;42.656;23.374;2022-09-23T10:31:30;94870.94;;;33.29;17.53
10462;BME280;5278;42.656;23.374;2022-09-23T10:33:59;94864.94;;;33.80;17.40
10462;BME280;5278;42.656;23.374;2022-09-23T10:36:27;94858.59;;;33.93;17.41
10462;BME280;5278;42.656;23.374;2022-09-23T10:38:56;94865.78;;;34.41;16.96
10462;BME280;5278;42.656;23.374;2022-09-23T10:41:50;94866.34;;;35.07;16.38
10462;BME280;5278;42.656;23.374;2022-09-23T10:44:50;94863.16;;;35.05;16.43
10462;BME280;5278;42.656;23.374;2022-09-23T10:47:46;94850.56;;;35.55;15.79
10462;BME280;5278;42.656;23.374;2022-09-23T10:50:30;94849.91;;;35.88;16.40
10462;BME280;5278;42.656;23.374;2022-09-23T10:53:03;94861.97;;;34.76;16.58
10462;BME280;5278;42.656;23.374;2022-09-23T10:55:44;94850.38;;;34.33;16.54
10462;BME280;5278;42.656;23.374;2022-09-23T10:58:31;94851.81;;;34.56;16.87
10462;BME280;5278;42.656;23.374;2022-09-23T11:01:14;94847.16;;;34.91;16.80
10462;BME280;5278;42.656;23.374;2022-09-23T11:04:11;94847.19;;;34.74;16.66
10462;BME280;5278;42.656;23.374;2022-09-23T11:06:49;94847.03;;;34.53;16.26
10462;BME280;5278;42.656;23.374;2022-09-23T11:09:34;94836.22;;;34.53;16.64
10462;BME280;5278;42.656;23.374;2022-09-23T11:12:14;94831.78;;;34.14;16.45
10462;BME280;5278;42.656;23.374;2022-09-23T11:14:52;94830.84;;;34.01;16.98
10462;BME280;5278;42.656;23.374;2022-09-23T11:20:33;94822.41;;;34.03;16.64
10462;BME280;5278;42.656;23.374;2022-09-23T11:23:23;94817.06;;;34.20;16.47
10462;BME280;5278;42.656;23.374;2022-09-23T11:25:58;94818.13;;;34.45;15.90
10462;BME280;5278;42.656;23.374;2022-09-23T11:28:57;94825.41;;;34.53;16.26
10462;BME280;5278;42.656;23.374;2022-09-23T11:31:36;94822.38;;;34.63;15.52
10462;BME280;5278;42.656;23.374;2022-09-23T11:34:20;94808.56;;;34.82;14.64
10462;BME280;5278;42.656;23.374;2022-09-23T11:36:56;94816.94;;;34.89;14.75
10462;BME280;5278;42.656;23.374;2022-09-23T11:39:28;94810.91;;;34.83;14.16
10462;BME280;5278;42.656;23.374;2022-09-23T11:41:58;94795.03;;;34.90;14.57
10462;BME280;5278;42.656;23.374;2022-09-23T11:44:30;94798.97;;;35.02;14.72
10462;BME280;5278;42.656;23.374;2022-09-23T11:47:02;94803.81;;;34.53;15.15
10462;BME280;5278;42.656;23.374;2022-09-23T11:49:36;94800.53;;;34.30;15.29
10462;BME280;5278;42.656;23.374;2022-09-23T11:52:10;94801.94;;;33.76;15.82
10462;BME280;5278;42.656;23.374;2022-09-23T11:54:42;94797.06;;;33.30;15.89
10462;BME280;5278;42.656;23.374;2022-09-23T11:57:17;94805.41;;;32.80;16.46
10462;BME280;5278;42.656;23.374;2022-09-23T11:59:48;94764.38;;;32.83;16.50
10462;BME280;5278;42.656;23.374;2022-09-23T12:02:23;94780.91;;;32.99;16.62
10462;BME280;5278;42.656;23.374;2022-09-23T12:04:57;94789.34;;;33.06;16.82
10462;BME280;5278;42.656;23.374;2022-09-23T12:07:30;94797.69;;;32.43;17.07
10462;BME280;5278;42.656;23.374;2022-09-23T12:10:04;94792.97;;;32.04;17.26
10462;BME280;5278;42.656;23.374;2022-09-23T12:12:39;94792.41;;;31.44;17.34
10462;BME280;5278;42.656;23.374;2022-09-23T12:15:20;94799.06;;;30.78;17.36
10462;BME280;5278;42.656;23.374;2022-09-23T12:18:23;94804.22;;;30.10;17.33
10462;BME280;5278;42.656;23.374;2022-09-23T12:21:04;94800.13;;;29.37;20.93
10462;BME280;5278;42.656;23.374;2022-09-23T12:23:58;94800.88;;;28.04;22.89
10462;BME280;5278;42.656;23.374;2022-09-23T12:26:29;94812.94;;;26.68;25.13
10462;BME280;5278;42.656;23.374;2022-09-23T12:28:59;94800.94;;;25.59;26.69
10462;BME280;5278;42.656;23.374;2022-09-23T12:31:28;94800.59;;;24.78;27.57
10462;BME280;5278;42.656;23.374;2022-09-23T12:33:57;94805.09;;;24.03;28.10
10462;BME280;5278;42.656;23.374;2022-09-23T12:36:27;94808.09;;;23.32;29.37
10462;BME280;5278;42.656;23.374;2022-09-23T12:38:59;94803.44;;;22.95;29.67
10462;BME280;5278;42.656;23.374;2022-09-23T12:41:29;94798.38;;;22.55;30.14
10462;BME280;5278;42.656;23.374;2022-09-23T12:44:13;94808.34;;;22.48;30.58
10462;BME280;5278;42.656;23.374;2022-09-23T12:46:41;94810.09;;;22.59;30.77
10462;BME280;5278;42.656;23.374;2022-09-23T12:49:21;94793.56;;;22.52;30.50
10462;BME280;5278;42.656;23.374;2022-09-23T12:52:12;94814.94;;;22.29;31.20
10462;BME280;5278;42.656;23.374;2022-09-23T12:54:42;94813.81;;;22.08;31.64
10462;BME280;5278;42.656;23.374;2022-09-23T12:57:10;94815.31;;;21.87;31.80
10462;BME280;5278;42.656;23.374;2022-09-23T12:59:57;94816.41;;;21.58;32.37
10462;BME280;5278;42.656;23.374;2022-09-23T13:02:31;94816.59;;;21.40;32.76
10462;BME280;5278;42.656;23.374;2022-09-23T13:05:08;94793.28;;;20.97;32.88
10462;BME280;5278;42.656;23.374;2022-09-23T13:07:59;94822.25;;;20.92;33.31
10462;BME280;5278;42.656;23.374;2022-09-23T13:10:31;94804.47;;;20.52;34.08
10462;BME280;5278;42.656;23.374;2022-09-23T13:13:00;94745.28;;;19.90;34.36
10462;BME280;5278;42.656;23.374;2022-09-23T13:15:29;94811.81;;;20.04;35.05
10462;BME280;5278;42.656;23.374;2022-09-23T13:21:15;94813.81;;;19.78;36.04
10462;BME280;5278;42.656;23.374;2022-09-23T13:26:47;94814.28;;;19.75;36.07
10462;BME280;5278;42.656;23.374;2022-09-23T13:29:18;94813.66;;;19.92;36.00
10462;BME280;5278;42.656;23.374;2022-09-23T13:31:46;94795.53;;;19.95;35.24
10462;BME280;5278;42.656;23.374;2022-09-23T13:34:15;94812.72;;;20.09;35.12
10462;BME280;5278;42.656;23.374;2022-09-23T13:36:46;94814.91;;;20.01;35.75
10462;BME280;5278;42.656;23.374;2022-09-23T13:39:14;94806.31;;;20.05;35.76